createdAt,value
2022-10-28T00:04:18.895Z,96827.19
2022-10-28T00:14:21.650Z,96827.84
2022-10-28T00:24:25.503Z,96822.97
2022-10-28T00:34:27.921Z,96816.75
2022-10-28T00:44:57.377Z,96814.25
2022-10-28T00:55:02.981Z,96819.44
2022-10-28T01:05:05.715Z,96817.59
2022-10-28T01:15:13.483Z,96802.69
2022-10-28T01:25:25.512Z,96805.13
2022-10-28T01:35:33.559Z,96800.69
2022-10-28T01:45:39.291Z,96798.22
2022-10-28T01:55:46.691Z,96792.97
2022-10-28T02:05:49.958Z,96788.22
2022-10-28T02:15:58.054Z,96786.72
2022-10-28T02:26:02.908Z,96784.69
2022-10-28T02:36:08.482Z,96775.84
2022-10-28T02:46:12.084Z,96760.13
2022-10-28T02:56:17.520Z,96768.25
2022-10-28T03:06:20.170Z,96775.38
2022-10-28T03:16:23.951Z,96768.34
2022-10-28T03:26:28.145Z,96777.41
2022-10-28T03:36:31.882Z,96766.16
2022-10-28T03:46:36.032Z,96760.72
2022-10-28T03:56:40.470Z,96754.19
2022-10-28T04:06:42.839Z,96761.22
2022-10-28T04:16:46.612Z,96756.75
2022-10-28T04:26:49.065Z,96752.88
2022-10-28T04:36:52.836Z,96749.78
2022-10-28T04:46:56.402Z,96730.28
2022-10-28T04:57:00.196Z,96738.22
2022-10-28T05:07:02.643Z,96752.69
2022-10-28T05:17:06.405Z,96750.03
2022-10-28T05:27:08.771Z,96734.03
2022-10-28T05:37:12.528Z,96733.84
2022-10-28T05:47:14.937Z,96733.19
2022-10-28T05:57:18.684Z,96742.41
2022-10-28T06:07:21.095Z,96742.41
2022-10-28T06:17:23.384Z,96741.09
2022-10-28T06:27:25.801Z,96742.88
2022-10-28T06:37:29.588Z,96744.97
2022-10-28T06:47:36.576Z,96744.94
2022-10-28T06:57:42.675Z,96731.19
2022-10-28T07:07:45.094Z,96747.88
2022-10-28T07:17:53.725Z,96761.50
2022-10-28T07:27:57.671Z,96769.25
2022-10-28T07:38:01.607Z,96772.44
2022-10-28T07:48:04.139Z,96774.25
2022-10-28T07:58:07.934Z,96785.69
2022-10-28T08:08:10.539Z,96782.81
2022-10-28T08:18:14.503Z,96788.63
2022-10-28T08:28:17.029Z,96784.19
2022-10-28T08:38:20.834Z,96788.84
2022-10-28T08:48:29.768Z,96787.31
2022-10-28T08:58:35.387Z,96773.59
2022-10-28T09:08:40.002Z,96769.88
2022-10-28T09:18:54.163Z,96795.09
2022-10-28T09:29:02.794Z,96795.66
2022-10-28T09:39:08.203Z,96803.84
2022-10-28T09:49:12.968Z,96796.03
2022-10-28T09:59:20.192Z,96796.44
2022-10-28T10:09:24.636Z,96801.88
2022-10-28T10:19:28.440Z,96796.47
2022-10-28T10:29:32.117Z,96787.78
2022-10-28T10:39:38.063Z,96787.75
2022-10-28T10:49:40.470Z,96793.97
2022-10-28T10:59:48.483Z,96791.97
2022-10-28T11:09:51.658Z,96779.00
2022-10-28T11:19:57.755Z,96770.25
2022-10-28T11:30:01.053Z,96787.47
2022-10-28T11:40:13.293Z,96781.03
2022-10-28T11:50:29.779Z,96754.47
2022-10-28T12:00:41.613Z,96728.84
2022-10-28T12:10:52.730Z,96715.53
2022-10-28T12:20:58.974Z,96709.72
2022-10-28T12:31:02.599Z,96714.31
2022-10-28T12:41:10.040Z,96718.31
2022-10-28T12:51:15.172Z,96707.78
2022-10-28T13:01:20.348Z,96690.22
2022-10-28T13:11:39.011Z,96714.78
2022-10-28T13:21:54.024Z,96706.56
2022-10-28T13:31:56.717Z,96702.00
2022-10-28T13:42:26.283Z,96703.91
2022-10-28T13:52:30.033Z,96701.13
2022-10-28T14:02:37.190Z,96690.75
2022-10-28T14:12:44.269Z,96699.72
2022-10-28T14:22:46.795Z,96708.84
2022-10-28T14:33:00.549Z,96718.34
2022-10-28T14:43:17.746Z,96727.97
2022-10-28T14:53:26.010Z,96720.19
2022-10-28T15:03:28.580Z,96721.28
2022-10-28T15:13:32.312Z,96720.59
2022-10-28T15:23:35.314Z,96720.16
2022-10-28T15:33:40.142Z,96702.88
2022-10-28T15:43:42.549Z,96699.28
2022-10-28T15:53:46.366Z,96701.56
2022-10-28T16:03:48.751Z,96703.94
2022-10-28T16:13:52.558Z,96718.47
2022-10-28T16:23:56.293Z,96718.31
2022-10-28T16:34:00.427Z,96722.09
2022-10-28T16:44:02.920Z,96720.53
2022-10-28T16:54:07.487Z,96726.53
2022-10-28T17:04:10.102Z,96728.63
2022-10-28T17:14:13.897Z,96737.84
2022-10-28T17:24:16.381Z,96753.56
2022-10-28T17:34:20.276Z,96750.50
2022-10-28T17:44:22.701Z,96753.50
2022-10-28T17:54:26.437Z,96760.38
2022-10-28T18:04:30.154Z,96767.31
2022-10-28T18:14:33.902Z,96762.72
2022-10-28T18:24:36.430Z,96764.91
2022-10-28T18:34:40.235Z,96761.16
2022-10-28T18:44:42.756Z,96766.09
2022-10-28T18:54:46.494Z,96780.47
2022-10-28T19:04:48.914Z,96780.50
2022-10-28T19:14:52.727Z,96787.03
2022-10-28T19:24:55.166Z,96780.56
2022-10-28T19:34:58.920Z,96779.75
2022-10-28T19:45:03.794Z,96775.22
2022-10-28T19:55:10.913Z,96774.72
2022-10-28T20:05:16.194Z,96762.50
2022-10-28T20:15:19.959Z,96769.31
2022-10-28T20:25:22.421Z,96776.38
2022-10-28T20:35:26.188Z,96766.66
2022-10-28T20:45:28.646Z,96783.19
2022-10-28T20:55:32.481Z,96787.78
2022-10-28T21:05:34.902Z,96777.50
2022-10-28T21:15:39.851Z,96776.97
2022-10-28T21:25:42.234Z,96779.41
2022-10-28T21:35:46.025Z,96795.38
2022-10-28T21:45:48.437Z,96798.09
2022-10-28T21:55:53.867Z,96814.31
2022-10-28T22:05:57.400Z,96815.66
2022-10-28T22:16:02.082Z,96818.06
2022-10-28T22:26:04.815Z,96814.25
2022-10-28T22:36:10.073Z,96820.41
2022-10-28T22:46:13.248Z,96821.78
2022-10-28T22:56:20.023Z,96813.38
2022-10-28T23:06:23.400Z,96826.63
2022-10-28T23:16:27.167Z,96819.03
2022-10-28T23:26:30.575Z,96810.63
2022-10-28T23:36:35.002Z,96801.44
2022-10-28T23:46:37.847Z,96803.56
2022-10-28T23:56:41.608Z,96804.38
